Time;durP1;ratioP1;P1;durP2;ratioP2;P2;SDS_P1;SDS_P2;PMS_P1;PMS_P2;Temp;Humidity;BMP_temperature;BMP_pressure;BME280_temperature;BME280_humidity;BME280_pressure;Samples;Min_cycle;Max_cycle;Signal;HPM_P1;HPM_P2
2021/08/09 00:00:25;;;;;;;2.53;2.22;;;;;;;;;;10282177;28;20465;-59
2021/08/09 00:05:24;;;;;;;3.90;2.53;;;;;;;;;;10281790;28;20512;-59
2021/08/09 00:10:24;;;;;;;4.05;2.50;;;;;;;;;;10281704;28;20056;-59
2021/08/09 00:15:22;;;;;;;3.20;2.35;;;;;;;;;;10281397;28;20052;-59
2021/08/09 00:20:21;;;;;;;2.40;2.03;;;;;;;;;;10281434;28;20076;-59
2021/08/09 00:25:19;;;;;;;5.55;2.00;;;;;;;;;;10281049;28;20083;-57
2021/08/09 00:30:18;;;;;;;2.67;2.33;;;;;;;;;;10281067;28;20049;-58
2021/08/09 00:35:17;;;;;;;3.22;2.10;;;;;;;;;;10279358;28;20053;-59
2021/08/09 00:40:15;;;;;;;2.58;2.38;;;;;;;;;;10278293;28;20055;-58
2021/08/09 00:45:14;;;;;;;3.15;2.38;;;;;;;;;;10279025;28;20053;-59
2021/08/09 00:50:14;;;;;;;4.03;2.00;;;;;;;;;;10279091;28;20049;-58
2021/08/09 00:55:15;;;;;;;5.03;2.38;;;;;;;;;;10278559;28;20060;-59
2021/08/09 01:00:13;;;;;;;3.20;2.17;;;;;;;;;;10278132;28;20056;-59
2021/08/09 01:05:16;;;;;;;4.00;2.38;;;;;;;;;;10278239;28;20448;-58
2021/08/09 01:10:21;;;;;;;4.63;2.53;;;;;;;;;;10278206;28;20083;-58
2021/08/09 01:15:24;;;;;;;9.38;3.15;;;;;;;;;;10277935;28;20053;-58
2021/08/09 01:20:32;;;;;;;2.85;2.33;;;;;;;;;;10277716;28;20068;-58
2021/08/09 01:25:35;;;;;;;3.38;2.65;;;;;;;;;;10277757;28;20053;-58
2021/08/09 01:30:37;;;;;;;2.92;2.33;;;;;;;;;;10277918;28;20049;-58
2021/08/09 01:35:37;;;;;;;3.75;2.40;;;;;;;;;;10276755;28;20057;-59
2021/08/09 01:40:36;;;;;;;4.00;2.10;;;;;;;;;;10278183;28;20094;-59
2021/08/09 01:45:37;;;;;;;2.55;2.35;;;;;;;;;;10276674;28;20417;-59
2021/08/09 01:50:36;;;;;;;3.05;2.35;;;;;;;;;;10276505;28;20437;-58
2021/08/09 01:55:37;;;;;;;5.30;3.10;;;;;;;;;;10276303;28;20052;-59
2021/08/09 02:00:38;;;;;;;5.75;2.90;;;;;;;;;;10276143;28;20080;-57
2021/08/09 02:05:37;;;;;;;4.40;3.95;;;;;;;;;;10276217;28;20056;-57
2021/08/09 02:10:41;;;;;;;3.78;2.80;;;;;;;;;;10275834;28;20057;-59
2021/08/09 02:15:52;;;;;;;6.35;3.25;;;;;;;;;;10275640;28;20083;-58
2021/08/09 02:20:50;;;;;;;5.05;2.65;;;;;;;;;;10276866;28;20080;-59
2021/08/09 02:25:52;;;;;;;3.22;2.75;;;;;;;;;;10275613;28;20508;-60
2021/08/09 02:30:54;;;;;;;3.72;2.95;;;;;;;;;;10274630;28;20049;-58
2021/08/09 02:35:53;;;;;;;4.03;3.35;;;;;;;;;;10274467;28;20061;-59
2021/08/09 02:40:53;;;;;;;5.30;3.03;;;;;;;;;;10275068;28;20087;-60
2021/08/09 02:45:53;;;;;;;3.58;3.25;;;;;;;;;;10274426;28;20065;-60
2021/08/09 02:50:51;;;;;;;4.57;3.35;;;;;;;;;;10274572;28;20483;-59
2021/08/09 02:55:51;;;;;;;5.80;3.58;;;;;;;;;;10275977;28;20036;-59
2021/08/09 03:00:50;;;;;;;3.65;3.25;;;;;;;;;;10276332;28;20044;-59
2021/08/09 03:05:52;;;;;;;3.55;3.00;;;;;;;;;;10292762;28;20147;-59
2021/08/09 03:10:51;;;;;;;4.45;3.80;;;;;;;;;;10290187;28;20718;-57
2021/08/09 03:15:49;;;;;;;6.53;3.70;;;;;;;;;;10290141;28;20075;-59
2021/08/09 03:20:48;;;;;;;4.95;3.65;;;;;;;;;;10273936;28;20409;-57
2021/08/09 03:25:48;;;;;;;4.05;3.30;;;;;;;;;;10287470;28;20073;-58
2021/08/09 03:30:47;;;;;;;8.20;3.40;;;;;;;;;;10277509;28;20500;-59
2021/08/09 03:35:45;;;;;;;5.45;3.03;;;;;;;;;;10281588;28;20076;-60
2021/08/09 03:40:45;;;;;;;6.13;2.70;;;;;;;;;;10269376;28;20452;-61
2021/08/09 03:45:45;;;;;;;6.20;3.20;;;;;;;;;;10270022;28;20493;-60
2021/08/09 03:50:43;;;;;;;5.45;3.15;;;;;;;;;;10271698;28;20091;-60
2021/08/09 03:55:42;;;;;;;5.15;3.45;;;;;;;;;;10274466;28;20052;-60
2021/08/09 04:00:40;;;;;;;7.25;4.40;;;;;;;;;;10273322;28;20048;-60
2021/08/09 04:05:40;;;;;;;4.07;3.65;;;;;;;;;;10272949;28;20056;-60
2021/08/09 04:10:39;;;;;;;6.63;3.22;;;;;;;;;;10274682;28;20053;-60
2021/08/09 04:15:38;;;;;;;5.43;3.10;;;;;;;;;;10279248;28;20041;-60
2021/08/09 04:20:38;;;;;;;9.50;4.80;;;;;;;;;;10280415;28;20093;-60
2021/08/09 04:25:38;;;;;;;21.65;18.95;;;;;;;;;;10279875;28;20045;-60
2021/08/09 04:30:37;;;;;;;10.95;9.88;;;;;;;;;;10281133;28;20041;-59
2021/08/09 04:35:35;;;;;;;16.25;10.15;;;;;;;;;;10278843;28;20057;-60
2021/08/09 04:40:34;;;;;;;5.88;3.28;;;;;;;;;;10280462;28;20088;-60
2021/08/09 04:45:34;;;;;;;9.13;3.72;;;;;;;;;;10278250;28;20060;-58
2021/08/09 04:50:33;;;;;;;6.15;2.90;;;;;;;;;;10278875;28;20049;-59
2021/08/09 04:55:31;;;;;;;5.32;4.05;;;;;;;;;;10277114;28;20045;-59
2021/08/09 05:00:33;;;;;;;8.40;3.17;;;;;;;;;;10278107;28;20084;-59
2021/08/09 05:05:32;;;;;;;6.57;3.33;;;;;;;;;;10278347;28;20063;-59
2021/08/09 05:10:33;;;;;;;7.82;3.53;;;;;;;;;;10279509;28;20068;-59
2021/08/09 05:15:33;;;;;;;3.72;3.17;;;;;;;;;;10278015;28;20041;-60
2021/08/09 05:20:33;;;;;;;2.83;2.60;;;;;;;;;;10279380;28;20099;-60
2021/08/09 05:25:33;;;;;;;2.90;2.67;;;;;;;;;;10277262;28;20045;-59
2021/08/09 05:30:31;;;;;;;3.60;3.30;;;;;;;;;;10278557;28;20048;-59
2021/08/09 05:35:30;;;;;;;6.15;3.92;;;;;;;;;;10277573;28;20243;-59
2021/08/09 05:40:30;;;;;;;7.05;3.97;;;;;;;;;;10278254;28;20455;-59
2021/08/09 05:45:30;;;;;;;5.68;3.03;;;;;;;;;;10276649;28;20053;-59
2021/08/09 05:50:28;;;;;;;20.52;5.95;;;;;;;;;;10276647;28;20045;-60
2021/08/09 05:55:35;;;;;;;13.75;5.03;;;;;;;;;;10276245;28;20061;-59
2021/08/09 06:00:38;;;;;;;6.32;3.85;;;;;;;;;;10275988;28;20057;-59
2021/08/09 06:05:41;;;;;;;9.30;4.20;;;;;;;;;;10276051;28;20060;-59
2021/08/09 06:10:45;;;;;;;9.20;4.00;;;;;;;;;;10276118;28;20061;-59
2021/08/09 06:15:45;;;;;;;7.95;5.10;;;;;;;;;;10275633;28;20052;-59
2021/08/09 06:20:45;;;;;;;7.75;3.85;;;;;;;;;;10276520;28;20524;-59
2021/08/09 06:25:45;;;;;;;13.30;7.28;;;;;;;;;;10276608;28;20087;-60
2021/08/09 06:30:46;;;;;;;16.73;6.03;;;;;;;;;;10275064;28;20060;-59
2021/08/09 06:35:49;;;;;;;14.43;6.20;;;;;;;;;;10273898;28;20498;-59
2021/08/09 06:40:51;;;;;;;12.20;5.95;;;;;;;;;;10275223;28;20103;-60
2021/08/09 06:45:50;;;;;;;14.02;5.55;;;;;;;;;;10274846;28;20057;-60
2021/08/09 06:50:50;;;;;;;13.60;5.63;;;;;;;;;;10274404;28;20052;-59
2021/08/09 06:55:48;;;;;;;14.38;4.88;;;;;;;;;;10275998;28;20037;-60
2021/08/09 07:00:51;;;;;;;18.42;5.10;;;;;;;;;;10274255;28;20091;-60
2021/08/09 07:05:51;;;;;;;46.17;9.27;;;;;;;;;;10273916;28;20064;-59
2021/08/09 07:10:54;;;;;;;18.37;6.03;;;;;;;;;;10273019;28;20059;-60
2021/08/09 07:15:57;;;;;;;11.38;4.85;;;;;;;;;;10273951;28;20045;-60
2021/08/09 07:20:57;;;;;;;11.52;4.65;;;;;;;;;;10274443;28;20513;-59
2021/08/09 07:25:56;;;;;;;13.50;5.40;;;;;;;;;;10274180;28;20053;-60
2021/08/09 07:30:54;;;;;;;16.80;5.90;;;;;;;;;;10275023;28;20045;-60
2021/08/09 07:36:00;;;;;;;15.48;5.13;;;;;;;;;;10273081;28;20053;-60
2021/08/09 07:40:59;;;;;;;11.02;5.22;;;;;;;;;;10274974;28;20077;-60
2021/08/09 07:45:57;;;;;;;14.65;5.10;;;;;;;;;;10274618;28;20056;-59
2021/08/09 07:50:56;;;;;;;18.67;6.80;;;;;;;;;;10282429;28;20048;-59
2021/08/09 07:55:55;;;;;;;14.63;6.25;;;;;;;;;;10280963;28;20056;-59
2021/08/09 08:00:54;;;;;;;16.75;6.05;;;;;;;;;;10280773;28;20083;-60
2021/08/09 08:05:54;;;;;;;10.77;6.05;;;;;;;;;;10280222;28;20049;-60
2021/08/09 08:10:53;;;;;;;13.70;6.72;;;;;;;;;;10280399;28;20430;-60
2021/08/09 08:15:53;;;;;;;10.63;4.75;;;;;;;;;;10280484;28;20049;-60
2021/08/09 08:20:55;;;;;;;8.07;4.50;;;;;;;;;;10279440;28;20045;-60
2021/08/09 08:25:54;;;;;;;7.25;4.50;;;;;;;;;;10279722;28;20044;-60
2021/08/09 08:30:54;;;;;;;7.47;4.60;;;;;;;;;;10279864;28;20052;-60
2021/08/09 08:35:53;;;;;;;14.27;4.55;;;;;;;;;;10278739;28;20056;-61
2021/08/09 08:40:53;;;;;;;11.57;3.97;;;;;;;;;;10279412;28;20049;-60
2021/08/09 08:45:57;;;;;;;8.90;4.25;;;;;;;;;;10278852;28;20056;-59
2021/08/09 08:50:57;;;;;;;7.60;4.07;;;;;;;;;;10278842;28;20049;-61
2021/08/09 08:55:57;;;;;;;10.00;4.40;;;;;;;;;;10278617;28;20060;-60
2021/08/09 09:00:56;;;;;;;8.65;3.58;;;;;;;;;;10278919;28;20077;-61
2021/08/09 09:05:59;;;;;;;5.30;3.15;;;;;;;;;;10279802;28;20489;-61
2021/08/09 09:10:57;;;;;;;6.97;3.30;;;;;;;;;;10279531;28;20053;-60
2021/08/09 09:15:58;;;;;;;7.10;3.60;;;;;;;;;;10279320;28;20068;-60
2021/08/09 09:20:57;;;;;;;10.75;4.35;;;;;;;;;;10279309;28;20084;-60
2021/08/09 09:25:55;;;;;;;6.07;3.58;;;;;;;;;;10278539;28;20053;-60
2021/08/09 09:30:54;;;;;;;5.30;3.25;;;;;;;;;;10278216;28;20073;-59
2021/08/09 09:35:54;;;;;;;7.10;3.47;;;;;;;;;;10278076;28;20415;-60
2021/08/09 09:41:03;;;;;;;4.88;3.20;;;;;;;;;;10278379;28;20076;-60
2021/08/09 09:46:01;;;;;;;4.68;3.15;;;;;;;;;;10277362;28;20045;-60
2021/08/09 09:51:10;;;;;;;4.80;2.90;;;;;;;;;;10277823;28;20040;-60
2021/08/09 09:56:08;;;;;;;4.50;3.45;;;;;;;;;;10277866;28;20047;-60
2021/08/09 10:01:07;;;;;;;7.28;2.63;;;;;;;;;;10277600;28;20076;-59
2021/08/09 10:06:06;;;;;;;4.30;2.60;;;;;;;;;;10277334;28;20512;-60
2021/08/09 10:11:06;;;;;;;5.43;3.28;;;;;;;;;;10276808;28;20060;-60
2021/08/09 10:16:07;;;;;;;6.88;2.95;;;;;;;;;;10277009;28;20453;-60
2021/08/09 10:21:06;;;;;;;3.78;3.10;;;;;;;;;;10276896;28;20080;-60
2021/08/09 10:26:06;;;;;;;4.53;2.70;;;;;;;;;;10276676;28;20052;-61
2021/08/09 10:31:19;;;;;;;6.28;3.15;;;;;;;;;;10276494;28;20048;-60
2021/08/09 10:36:20;;;;;;;6.97;2.63;;;;;;;;;;10276326;28;20537;-60
2021/08/09 10:41:29;;;;;;;3.85;2.53;;;;;;;;;;10274613;28;20085;-59
2021/08/09 10:46:35;;;;;;;4.75;2.70;;;;;;;;;;10276158;28;20069;-60
2021/08/09 10:51:52;;;;;;;3.40;2.45;;;;;;;;;;10276141;28;20045;-60
2021/08/09 10:56:51;;;;;;;2.78;2.53;;;;;;;;;;10275695;28;20543;-60
2021/08/09 11:01:59;;;;;;;6.85;2.40;;;;;;;;;;10276009;28;20085;-59
2021/08/09 11:06:58;;;;;;;6.88;2.47;;;;;;;;;;10275856;28;20073;-60
2021/08/09 11:12:10;;;;;;;3.70;2.58;;;;;;;;;;10274844;28;20421;-60
2021/08/09 11:17:08;;;;;;;3.65;2.63;;;;;;;;;;10275782;28;20045;-59
2021/08/09 11:22:07;;;;;;;6.53;2.42;;;;;;;;;;10278643;28;20473;-60
2021/08/09 11:27:06;;;;;;;6.57;2.58;;;;;;;;;;10284197;28;20049;-59
2021/08/09 11:32:07;;;;;;;5.35;2.95;;;;;;;;;;10283498;28;20057;-60
2021/08/09 11:37:05;;;;;;;12.52;3.28;;;;;;;;;;10282793;28;20068;-60
2021/08/09 11:42:04;;;;;;;7.95;3.15;;;;;;;;;;10283446;28;20080;-61
2021/08/09 11:47:02;;;;;;;5.43;2.85;;;;;;;;;;10282999;28;20417;-59
2021/08/09 11:52:02;;;;;;;4.38;2.30;;;;;;;;;;10282972;28;20041;-60
2021/08/09 11:57:00;;;;;;;3.08;2.78;;;;;;;;;;10282822;28;20041;-60
2021/08/09 12:02:06;;;;;;;4.57;2.80;;;;;;;;;;10282065;28;20089;-61
2021/08/09 12:07:05;;;;;;;6.93;3.17;;;;;;;;;;10282256;28;20088;-60
2021/08/09 12:12:05;;;;;;;5.80;3.10;;;;;;;;;;10281948;28;20073;-60
2021/08/09 12:17:23;;;;;;;8.23;3.90;;;;;;;;;;10281890;28;20537;-59
2021/08/09 12:22:25;;;;;;;4.60;3.67;;;;;;;;;;10280933;28;20491;-61
2021/08/09 12:27:23;;;;;;;3.10;2.80;;;;;;;;;;10281624;28;20084;-60
2021/08/09 12:32:22;;;;;;;5.15;2.78;;;;;;;;;;10279225;28;20064;-60
2021/08/09 12:37:20;;;;;;;5.43;3.00;;;;;;;;;;10280551;28;20076;-59
2021/08/09 12:42:22;;;;;;;4.85;2.85;;;;;;;;;;10280902;28;20088;-61
2021/08/09 12:47:21;;;;;;;3.15;2.60;;;;;;;;;;10279275;28;20045;-60
2021/08/09 12:52:19;;;;;;;3.83;2.20;;;;;;;;;;10280675;28;20053;-61
2021/08/09 12:57:18;;;;;;;3.13;2.60;;;;;;;;;;10280520;28;20449;-61
2021/08/09 13:02:17;;;;;;;3.78;2.50;;;;;;;;;;10279279;28;20084;-60
2021/08/09 13:07:16;;;;;;;4.40;2.50;;;;;;;;;;10280235;28;20087;-60
2021/08/09 13:12:14;;;;;;;3.88;3.13;;;;;;;;;;10279850;28;20426;-60
2021/08/09 13:17:12;;;;;;;3.45;2.50;;;;;;;;;;10279823;28;20037;-59
2021/08/09 13:22:12;;;;;;;3.10;2.80;;;;;;;;;;10279681;28;20096;-61
2021/08/09 13:27:11;;;;;;;3.17;2.60;;;;;;;;;;10279399;28;20033;-59
2021/08/09 13:32:09;;;;;;;11.43;9.82;;;;;;;;;;10278192;28;20043;-59
2021/08/09 13:37:07;;;;;;;9.30;7.28;;;;;;;;;;10278263;28;20081;-59
2021/08/09 13:42:07;;;;;;;31.83;20.88;;;;;;;;;;10278579;28;20083;-60
2021/08/09 13:47:06;;;;;;;24.60;17.83;;;;;;;;;;10277664;28;20052;-60
2021/08/09 13:52:04;;;;;;;26.00;18.88;;;;;;;;;;10276640;28;20425;-60
2021/08/09 13:57:03;;;;;;;19.00;12.52;;;;;;;;;;10276362;28;20048;-60
2021/08/09 14:02:03;;;;;;;9.00;6.82;;;;;;;;;;10276855;28;20463;-60
2021/08/09 14:07:01;;;;;;;10.63;6.50;;;;;;;;;;10277680;28;20067;-60
2021/08/09 14:11:59;;;;;;;6.28;4.97;;;;;;;;;;10277717;28;20045;-60
2021/08/09 14:17:02;;;;;;;16.63;12.07;;;;;;;;;;10277655;28;20053;-60
2021/08/09 14:22:04;;;;;;;15.55;12.43;;;;;;;;;;10275723;28;20077;-60
2021/08/09 14:27:03;;;;;;;11.80;6.05;;;;;;;;;;10275640;28;20041;-60
2021/08/09 14:32:02;;;;;;;13.05;11.75;;;;;;;;;;10281522;28;20080;-59
2021/08/09 14:37:01;;;;;;;17.55;13.55;;;;;;;;;;10302857;28;20064;-58
2021/08/09 14:42:03;;;;;;;9.63;5.00;;;;;;;;;;10298989;28;21404;-58
2021/08/09 14:47:08;;;;;;;9.40;3.80;;;;;;;;;;10283175;28;20083;-58
2021/08/09 14:52:08;;;;;;;6.45;3.53;;;;;;;;;;10292867;28;20040;-54
2021/08/09 14:57:11;;;;;;;4.78;4.13;;;;;;;;;;10285568;28;20076;-56
2021/08/09 15:02:23;;;;;;;11.82;10.43;;;;;;;;;;10285329;28;20085;-55
2021/08/09 15:07:24;;;;;;;9.60;8.65;;;;;;;;;;10285928;28;20072;-55
2021/08/09 15:12:30;;;;;;;14.00;7.47;;;;;;;;;;10290649;28;20084;-56
2021/08/09 15:17:29;;;;;;;10.40;9.40;;;;;;;;;;10266999;28;20081;-55
2021/08/09 15:22:27;;;;;;;14.32;9.48;;;;;;;;;;10267623;28;20077;-55
2021/08/09 15:27:25;;;;;;;7.80;5.75;;;;;;;;;;10268043;28;20080;-57
2021/08/09 15:32:25;;;;;;;6.68;4.22;;;;;;;;;;10282282;28;20071;-57
2021/08/09 15:37:24;;;;;;;5.25;3.55;;;;;;;;;;10290551;28;20080;-49
2021/08/09 15:42:22;;;;;;;6.13;4.93;;;;;;;;;;10296546;28;20068;-53
2021/08/09 15:47:21;;;;;;;7.82;7.13;;;;;;;;;;10304088;28;20041;-52
2021/08/09 15:52:20;;;;;;;7.13;4.07;;;;;;;;;;10287939;28;20068;-54
2021/08/09 15:57:18;;;;;;;8.57;7.78;;;;;;;;;;10291361;28;20080;-52
2021/08/09 16:02:17;;;;;;;8.02;7.20;;;;;;;;;;10271755;28;20079;-55
2021/08/09 16:07:15;;;;;;;7.13;4.22;;;;;;;;;;10274516;28;20072;-54
2021/08/09 16:12:16;;;;;;;5.60;3.80;;;;;;;;;;10289225;28;20070;-59
2021/08/09 16:17:15;;;;;;;4.03;3.60;;;;;;;;;;10300359;28;20099;-58
2021/08/09 16:22:14;;;;;;;9.43;4.65;;;;;;;;;;10298332;28;20075;-59
2021/08/09 16:27:12;;;;;;;4.47;4.07;;;;;;;;;;10295133;28;20079;-59
2021/08/09 16:32:32;;;;;;;4.93;3.67;;;;;;;;;;10292141;28;20496;-60
2021/08/09 16:37:30;;;;;;;6.80;4.15;;;;;;;;;;10277106;28;20504;-60
2021/08/09 16:42:29;;;;;;;5.90;4.90;;;;;;;;;;10276676;28;20064;-59
2021/08/09 16:47:27;;;;;;;7.63;5.95;;;;;;;;;;10279844;28;20095;-59
2021/08/09 16:52:27;;;;;;;10.60;7.00;;;;;;;;;;10280533;28;20489;-59
2021/08/09 16:57:26;;;;;;;5.57;4.43;;;;;;;;;;10280170;28;20194;-60
2021/08/09 17:02:30;;;;;;;9.15;3.40;;;;;;;;;;10290881;28;20493;-58
2021/08/09 17:07:29;;;;;;;8.98;4.18;;;;;;;;;;10293324;28;20084;-54
2021/08/09 17:12:28;;;;;;;4.68;4.13;;;;;;;;;;10294766;28;20107;-49
2021/08/09 17:17:27;;;;;;;6.40;5.80;;;;;;;;;;10296400;28;20051;-56
2021/08/09 17:22:25;;;;;;;10.85;6.20;;;;;;;;;;10284175;28;20076;-51
2021/08/09 17:27:25;;;;;;;5.00;4.50;;;;;;;;;;10295373;28;20075;-51
2021/08/09 17:32:23;;;;;;;6.55;3.67;;;;;;;;;;10314187;28;20072;-54
2021/08/09 17:37:21;;;;;;;5.38;4.35;;;;;;;;;;10281855;28;20087;-53
2021/08/09 17:42:20;;;;;;;5.57;3.10;;;;;;;;;;10288890;28;20441;-52
2021/08/09 17:47:19;;;;;;;10.27;4.60;;;;;;;;;;10302016;28;20072;-56
2021/08/09 17:52:18;;;;;;;10.88;5.95;;;;;;;;;;10295336;28;20068;-54
2021/08/09 17:57:16;;;;;;;13.35;7.95;;;;;;;;;;10294927;28;21171;-52
2021/08/09 18:02:16;;;;;;;6.30;5.35;;;;;;;;;;10275605;28;20045;-55
2021/08/09 18:07:16;;;;;;;8.63;5.00;;;;;;;;;;10277371;28;20084;-55
2021/08/09 18:12:14;;;;;;;5.90;4.57;;;;;;;;;;10296335;28;20040;-49
2021/08/09 18:17:13;;;;;;;5.40;4.32;;;;;;;;;;10293438;28;20080;-53
2021/08/09 18:22:12;;;;;;;6.90;3.80;;;;;;;;;;10288785;28;20125;-55
2021/08/09 18:27:12;;;;;;;8.02;3.53;;;;;;;;;;10278633;28;20517;-52
2021/08/09 18:32:10;;;;;;;12.88;4.00;;;;;;;;;;10298226;28;20744;-52
2021/08/09 18:37:08;;;;;;;5.30;3.85;;;;;;;;;;10290548;28;20533;-50
2021/08/09 18:42:08;;;;;;;8.05;4.13;;;;;;;;;;10283992;28;20069;-52
2021/08/09 18:47:07;;;;;;;4.32;3.78;;;;;;;;;;10275924;28;20080;-52
2021/08/09 18:52:06;;;;;;;7.00;4.47;;;;;;;;;;10273669;28;20454;-52
2021/08/09 18:57:04;;;;;;;6.55;3.25;;;;;;;;;;10283681;28;20068;-50
2021/08/09 19:02:03;;;;;;;8.10;3.83;;;;;;;;;;10296335;28;20072;-54
2021/08/09 19:07:03;;;;;;;6.38;4.10;;;;;;;;;;10278756;28;20068;-54
2021/08/09 19:12:02;;;;;;;5.68;3.58;;;;;;;;;;10295681;28;20068;-45
2021/08/09 19:17:02;;;;;;;5.45;3.40;;;;;;;;;;10306056;28;20095;-52
2021/08/09 19:22:00;;;;;;;8.57;3.70;;;;;;;;;;10299873;28;20107;-51
2021/08/09 19:27:00;;;;;;;5.68;4.30;;;;;;;;;;10284593;28;20080;-53
2021/08/09 19:31:58;;;;;;;9.43;4.47;;;;;;;;;;10288975;28;20045;-53
2021/08/09 19:36:57;;;;;;;5.53;4.20;;;;;;;;;;10302347;28;20099;-54
2021/08/09 19:41:55;;;;;;;7.38;4.93;;;;;;;;;;10295000;28;20104;-55
2021/08/09 19:46:55;;;;;;;7.55;3.95;;;;;;;;;;10293869;28;20079;-55
2021/08/09 19:51:53;;;;;;;4.13;3.60;;;;;;;;;;10281803;28;20076;-51
2021/08/09 19:56:54;;;;;;;4.80;4.03;;;;;;;;;;10282842;28;20512;-55
2021/08/09 20:01:52;;;;;;;6.57;4.10;;;;;;;;;;10281789;28;20080;-56
2021/08/09 20:06:52;;;;;;;6.50;4.80;;;;;;;;;;10280510;28;20076;-54
2021/08/09 20:11:50;;;;;;;5.70;3.08;;;;;;;;;;10301155;28;20068;-55
2021/08/09 20:16:48;;;;;;;6.43;4.07;;;;;;;;;;10292160;28;20072;-54
2021/08/09 20:21:46;;;;;;;3.40;3.10;;;;;;;;;;10290559;28;20056;-54
2021/08/09 20:26:46;;;;;;;5.85;3.65;;;;;;;;;;10292308;28;20095;-52
2021/08/09 20:31:44;;;;;;;4.45;3.42;;;;;;;;;;10292126;28;20051;-53
2021/08/09 20:36:43;;;;;;;7.28;3.83;;;;;;;;;;10298506;28;20080;-55
2021/08/09 20:41:41;;;;;;;4.07;3.67;;;;;;;;;;10284497;28;20056;-54
2021/08/09 20:46:41;;;;;;;4.30;3.10;;;;;;;;;;10281100;28;20076;-55
2021/08/09 20:51:39;;;;;;;8.18;3.28;;;;;;;;;;10282960;28;20044;-55
2021/08/09 20:56:38;;;;;;;6.57;4.13;;;;;;;;;;10288176;28;20041;-52
2021/08/09 21:01:36;;;;;;;4.28;3.22;;;;;;;;;;10280426;28;20041;-56
2021/08/09 21:06:36;;;;;;;6.97;3.17;;;;;;;;;;10283255;28;20083;-51
2021/08/09 21:11:36;;;;;;;3.67;3.38;;;;;;;;;;10287905;28;20060;-55
2021/08/09 21:16:34;;;;;;;4.60;3.70;;;;;;;;;;10295913;28;20044;-53
2021/08/09 21:21:33;;;;;;;5.05;3.70;;;;;;;;;;10279448;28;20048;-49
2021/08/09 21:26:32;;;;;;;4.10;3.10;;;;;;;;;;10290204;28;20531;-54
2021/08/09 21:31:31;;;;;;;5.03;3.70;;;;;;;;;;10279197;28;20091;-53
2021/08/09 21:36:29;;;;;;;3.50;3.20;;;;;;;;;;10278683;28;20541;-54
2021/08/09 21:41:27;;;;;;;5.93;3.50;;;;;;;;;;10278139;28;20413;-53
2021/08/09 21:46:27;;;;;;;4.93;3.53;;;;;;;;;;10278387;28;20072;-55
2021/08/09 21:51:25;;;;;;;3.72;3.15;;;;;;;;;;10278327;28;20053;-51
2021/08/09 21:56:24;;;;;;;8.35;3.33;;;;;;;;;;10278285;28;20045;-52
2021/08/09 22:01:22;;;;;;;6.13;3.55;;;;;;;;;;10278293;28;20045;-53
2021/08/09 22:06:22;;;;;;;5.25;2.95;;;;;;;;;;10277371;28;20493;-54
2021/08/09 22:11:20;;;;;;;4.10;3.15;;;;;;;;;;10277515;28;20080;-50
2021/08/09 22:16:19;;;;;;;6.35;3.30;;;;;;;;;;10277507;28;20409;-53
2021/08/09 22:21:17;;;;;;;5.70;3.08;;;;;;;;;;10277293;28;20037;-52
2021/08/09 22:26:17;;;;;;;3.20;2.90;;;;;;;;;;10276974;28;20413;-55
2021/08/09 22:31:17;;;;;;;6.32;3.60;;;;;;;;;;10276874;28;20045;-51
2021/08/09 22:36:17;;;;;;;8.73;3.80;;;;;;;;;;10276075;28;20080;-54
2021/08/09 22:41:17;;;;;;;4.45;2.85;;;;;;;;;;10276584;28;20052;-56
2021/08/09 22:46:15;;;;;;;4.88;3.30;;;;;;;;;;10276210;28;20080;-55
2021/08/09 22:51:14;;;;;;;5.78;3.45;;;;;;;;;;10276133;28;20438;-54
2021/08/09 22:56:12;;;;;;;3.45;3.15;;;;;;;;;;10275926;28;20052;-52
2021/08/09 23:01:12;;;;;;;5.25;2.70;;;;;;;;;;10275734;28;20068;-54
2021/08/09 23:06:11;;;;;;;3.50;3.20;;;;;;;;;;10275395;28;20076;-54
2021/08/09 23:11:09;;;;;;;4.47;3.30;;;;;;;;;;10275720;28;20048;-53
2021/08/09 23:16:07;;;;;;;7.53;3.55;;;;;;;;;;10275759;28;20041;-53
2021/08/09 23:21:07;;;;;;;5.85;3.90;;;;;;;;;;10283963;28;20533;-52
2021/08/09 23:26:06;;;;;;;4.07;3.67;;;;;;;;;;10283786;28;20077;-52
2021/08/09 23:31:04;;;;;;;4.78;2.95;;;;;;;;;;10283830;28;20068;-53
2021/08/09 23:36:03;;;;;;;6.68;4.38;;;;;;;;;;10283387;28;20061;-52
2021/08/09 23:41:03;;;;;;;8.02;5.07;;;;;;;;;;10283415;28;20045;-52
2021/08/09 23:46:01;;;;;;;7.13;5.35;;;;;;;;;;10281958;28;20486;-52
2021/08/09 23:50:59;;;;;;;10.20;5.97;;;;;;;;;;10282977;28;20048;-51
2021/08/09 23:55:58;;;;;;;10.88;5.15;;;;;;;;;;10283113;28;20060;-55
